sensor_id;sensor_type;location;lat;lon;timestamp;temperature;humidity
3356;DHT22;1691;52.486;13.374;2023-07-29T00:01:34;18.40;98.70
3356;DHT22;1691;52.486;13.374;2023-07-29T00:04:01;18.40;98.70
3356;DHT22;1691;52.486;13.374;2023-07-29T00:06:28;18.40;98.70
3356;DHT22;1691;52.486;13.374;2023-07-29T00:08:55;18.30;98.70
3356;DHT22;1691;52.486;13.374;2023-07-29T00:11:22;18.30;98.70
3356;DHT22;1691;52.486;13.374;2023-07-29T00:13:49;18.20;98.70
3356;DHT22;1691;52.486;13.374;2023-07-29T00:16:17;18.20;98.70
3356;DHT22;1691;52.486;13.374;2023-07-29T00:18:44;18.20;98.70
3356;DHT22;1691;52.486;13.374;2023-07-29T00:21:11;18.20;98.70
3356;DHT22;1691;52.486;13.374;2023-07-29T00:23:38;18.20;98.70
3356;DHT22;1691;52.486;13.374;2023-07-29T00:26:05;18.10;98.70
3356;DHT22;1691;52.486;13.374;2023-07-29T00:28:32;18.10;98.70
3356;DHT22;1691;52.486;13.374;2023-07-29T00:30:59;18.10;98.70
3356;DHT22;1691;52.486;13.374;2023-07-29T00:33:26;18.10;98.70
3356;DHT22;1691;52.486;13.374;2023-07-29T00:35:53;18.10;98.70
3356;DHT22;1691;52.486;13.374;2023-07-29T00:38:19;18.00;98.70
3356;DHT22;1691;52.486;13.374;2023-07-29T00:40:46;18.00;98.70
3356;DHT22;1691;52.486;13.374;2023-07-29T00:43:13;18.00;98.70
3356;DHT22;1691;52.486;13.374;2023-07-29T00:45:41;18.00;98.70
3356;DHT22;1691;52.486;13.374;2023-07-29T00:48:09;18.00;98.70
3356;DHT22;1691;52.486;13.374;2023-07-29T00:50:37;17.90;98.70
3356;DHT22;1691;52.486;13.374;2023-07-29T00:53:03;17.90;98.70
3356;DHT22;1691;52.486;13.374;2023-07-29T00:55:30;17.90;98.70
3356;DHT22;1691;52.486;13.374;2023-07-29T00:57:57;17.90;98.70
3356;DHT22;1691;52.486;13.374;2023-07-29T01:00:24;17.90;98.70
3356;DHT22;1691;52.486;13.374;2023-07-29T01:02:52;17.90;98.70
3356;DHT22;1691;52.486;13.374;2023-07-29T01:05:21;17.90;98.70
3356;DHT22;1691;52.486;13.374;2023-07-29T01:07:59;17.90;98.70
3356;DHT22;1691;52.486;13.374;2023-07-29T01:10:51;17.90;98.70
3356;DHT22;1691;52.486;13.374;2023-07-29T01:16:50;17.90;98.70
3356;DHT22;1691;52.486;13.374;2023-07-29T01:19:42;17.80;98.70
3356;DHT22;1691;52.486;13.374;2023-07-29T01:22:10;17.80;98.70
3356;DHT22;1691;52.486;13.374;2023-07-29T01:24:39;17.80;98.70
3356;DHT22;1691;52.486;13.374;2023-07-29T01:27:06;17.70;98.70
3356;DHT22;1691;52.486;13.374;2023-07-29T01:29:33;17.70;98.70
3356;DHT22;1691;52.486;13.374;2023-07-29T01:32:14;17.80;98.70
3356;DHT22;1691;52.486;13.374;2023-07-29T01:37:30;17.80;98.70
3356;DHT22;1691;52.486;13.374;2023-07-29T01:40:00;17.80;98.70
3356;DHT22;1691;52.486;13.374;2023-07-29T01:42:29;17.80;98.70
3356;DHT22;1691;52.486;13.374;2023-07-29T01:44:58;17.80;98.70
3356;DHT22;1691;52.486;13.374;2023-07-29T01:47:24;17.80;98.70
3356;DHT22;1691;52.486;13.374;2023-07-29T01:49:51;17.70;98.70
3356;DHT22;1691;52.486;13.374;2023-07-29T01:52:18;17.70;98.70
3356;DHT22;1691;52.486;13.374;2023-07-29T01:54:45;17.70;98.70
3356;DHT22;1691;52.486;13.374;2023-07-29T01:57:12;17.70;98.70
3356;DHT22;1691;52.486;13.374;2023-07-29T01:59:39;17.60;98.70
3356;DHT22;1691;52.486;13.374;2023-07-29T02:02:05;17.60;98.70
3356;DHT22;1691;52.486;13.374;2023-07-29T02:04:32;17.60;98.70
3356;DHT22;1691;52.486;13.374;2023-07-29T02:06:59;17.60;98.70
3356;DHT22;1691;52.486;13.374;2023-07-29T02:09:26;17.60;98.70
3356;DHT22;1691;52.486;13.374;2023-07-29T02:11:54;17.60;98.70
3356;DHT22;1691;52.486;13.374;2023-07-29T02:14:20;17.50;98.70
3356;DHT22;1691;52.486;13.374;2023-07-29T02:16:47;17.50;98.70
3356;DHT22;1691;52.486;13.374;2023-07-29T02:19:14;17.50;98.70
3356;DHT22;1691;52.486;13.374;2023-07-29T02:21:41;17.50;98.70
3356;DHT22;1691;52.486;13.374;2023-07-29T02:24:08;17.50;98.70
3356;DHT22;1691;52.486;13.374;2023-07-29T02:26:35;17.50;98.70
3356;DHT22;1691;52.486;13.374;2023-07-29T02:29:02;17.50;98.70
3356;DHT22;1691;52.486;13.374;2023-07-29T02:31:29;17.40;98.70
3356;DHT22;1691;52.486;13.374;2023-07-29T02:33:56;17.40;98.70
3356;DHT22;1691;52.486;13.374;2023-07-29T02:36:23;17.40;98.70
3356;DHT22;1691;52.486;13.374;2023-07-29T02:38:49;17.40;98.70
3356;DHT22;1691;52.486;13.374;2023-07-29T02:41:16;17.40;98.70
3356;DHT22;1691;52.486;13.374;2023-07-29T02:43:48;17.30;98.70
3356;DHT22;1691;52.486;13.374;2023-07-29T02:46:15;17.30;98.70
3356;DHT22;1691;52.486;13.374;2023-07-29T02:48:43;17.20;98.70
3356;DHT22;1691;52.486;13.374;2023-07-29T02:51:10;17.20;98.70
3356;DHT22;1691;52.486;13.374;2023-07-29T02:53:37;17.20;98.70
3356;DHT22;1691;52.486;13.374;2023-07-29T02:56:04;17.20;98.70
3356;DHT22;1691;52.486;13.374;2023-07-29T02:58:33;17.20;98.70
3356;DHT22;1691;52.486;13.374;2023-07-29T03:01:03;17.10;98.70
3356;DHT22;1691;52.486;13.374;2023-07-29T03:03:31;17.10;98.70
3356;DHT22;1691;52.486;13.374;2023-07-29T03:06:06;17.10;98.70
3356;DHT22;1691;52.486;13.374;2023-07-29T03:08:33;17.10;98.70
3356;DHT22;1691;52.486;13.374;2023-07-29T03:11:15;17.10;98.70
3356;DHT22;1691;52.486;13.374;2023-07-29T03:13:43;17.10;98.70
3356;DHT22;1691;52.486;13.374;2023-07-29T03:16:14;17.10;98.70
3356;DHT22;1691;52.486;13.374;2023-07-29T03:18:42;17.10;98.70
3356;DHT22;1691;52.486;13.374;2023-07-29T03:21:10;17.10;98.70
3356;DHT22;1691;52.486;13.374;2023-07-29T03:23:38;17.10;98.70
3356;DHT22;1691;52.486;13.374;2023-07-29T03:26:05;17.10;98.70
3356;DHT22;1691;52.486;13.374;2023-07-29T03:28:42;17.10;98.70
3356;DHT22;1691;52.486;13.374;2023-07-29T03:31:09;17.10;98.70
3356;DHT22;1691;52.486;13.374;2023-07-29T03:33:37;17.10;98.70
3356;DHT22;1691;52.486;13.374;2023-07-29T03:36:04;17.10;98.70
3356;DHT22;1691;52.486;13.374;2023-07-29T03:38:31;17.10;98.70
3356;DHT22;1691;52.486;13.374;2023-07-29T03:40:59;17.10;98.70
3356;DHT22;1691;52.486;13.374;2023-07-29T03:43:26;17.10;98.70
3356;DHT22;1691;52.486;13.374;2023-07-29T03:45:54;17.10;98.70
3356;DHT22;1691;52.486;13.374;2023-07-29T03:48:21;17.10;98.70
3356;DHT22;1691;52.486;13.374;2023-07-29T03:50:48;17.10;98.70
3356;DHT22;1691;52.486;13.374;2023-07-29T03:53:15;17.10;98.70
3356;DHT22;1691;52.486;13.374;2023-07-29T03:55:42;17.10;98.70
3356;DHT22;1691;52.486;13.374;2023-07-29T03:58:09;17.10;98.70
3356;DHT22;1691;52.486;13.374;2023-07-29T04:00:36;17.10;98.70
3356;DHT22;1691;52.486;13.374;2023-07-29T04:03:03;17.10;98.70
3356;DHT22;1691;52.486;13.374;2023-07-29T04:05:30;17.20;98.70
3356;DHT22;1691;52.486;13.374;2023-07-29T04:07:57;17.20;98.70
3356;DHT22;1691;52.486;13.374;2023-07-29T04:10:23;17.30;98.70
3356;DHT22;1691;52.486;13.374;2023-07-29T04:12:50;17.30;98.70
3356;DHT22;1691;52.486;13.374;2023-07-29T04:15:17;17.40;98.70
3356;DHT22;1691;52.486;13.374;2023-07-29T04:17:44;17.50;98.70
3356;DHT22;1691;52.486;13.374;2023-07-29T04:20:11;17.60;98.70
3356;DHT22;1691;52.486;13.374;2023-07-29T04:22:38;17.70;98.70
3356;DHT22;1691;52.486;13.374;2023-07-29T04:25:05;17.90;98.70
3356;DHT22;1691;52.486;13.374;2023-07-29T04:27:32;18.10;98.70
3356;DHT22;1691;52.486;13.374;2023-07-29T04:29:59;18.30;98.70
3356;DHT22;1691;52.486;13.374;2023-07-29T04:32:26;18.60;98.70
3356;DHT22;1691;52.486;13.374;2023-07-29T04:34:53;19.10;98.70
3356;DHT22;1691;52.486;13.374;2023-07-29T04:37:19;19.40;98.70
3356;DHT22;1691;52.486;13.374;2023-07-29T04:39:46;19.70;98.70
3356;DHT22;1691;52.486;13.374;2023-07-29T04:42:13;19.90;98.70
3356;DHT22;1691;52.486;13.374;2023-07-29T04:44:40;20.10;98.70
3356;DHT22;1691;52.486;13.374;2023-07-29T04:47:08;20.20;98.70
3356;DHT22;1691;52.486;13.374;2023-07-29T04:49:35;20.20;98.70
3356;DHT22;1691;52.486;13.374;2023-07-29T04:52:02;20.20;98.70
3356;DHT22;1691;52.486;13.374;2023-07-29T04:54:29;20.20;98.70
3356;DHT22;1691;52.486;13.374;2023-07-29T04:56:56;20.20;98.70
3356;DHT22;1691;52.486;13.374;2023-07-29T04:59:22;20.40;98.70
3356;DHT22;1691;52.486;13.374;2023-07-29T05:01:50;20.80;98.70
3356;DHT22;1691;52.486;13.374;2023-07-29T05:04:20;21.30;98.70
3356;DHT22;1691;52.486;13.374;2023-07-29T05:06:47;21.90;98.70
3356;DHT22;1691;52.486;13.374;2023-07-29T05:09:18;22.30;98.70
3356;DHT22;1691;52.486;13.374;2023-07-29T05:11:46;22.50;98.70
3356;DHT22;1691;52.486;13.374;2023-07-29T05:14:14;22.60;98.70
3356;DHT22;1691;52.486;13.374;2023-07-29T05:16:41;22.60;98.70
3356;DHT22;1691;52.486;13.374;2023-07-29T05:19:08;22.60;98.70
3356;DHT22;1691;52.486;13.374;2023-07-29T05:21:37;22.90;98.70
3356;DHT22;1691;52.486;13.374;2023-07-29T05:24:05;23.50;98.70
3356;DHT22;1691;52.486;13.374;2023-07-29T05:26:31;24.20;98.70
3356;DHT22;1691;52.486;13.374;2023-07-29T05:28:58;25.00;97.30
3356;DHT22;1691;52.486;13.374;2023-07-29T05:31:25;25.80;95.40
3356;DHT22;1691;52.486;13.374;2023-07-29T05:33:52;26.40;93.00
3356;DHT22;1691;52.486;13.374;2023-07-29T05:36:19;26.50;91.60
3356;DHT22;1691;52.486;13.374;2023-07-29T05:38:46;26.20;90.90
3356;DHT22;1691;52.486;13.374;2023-07-29T05:41:13;26.00;90.50
3356;DHT22;1691;52.486;13.374;2023-07-29T05:43:39;25.70;90.40
3356;DHT22;1691;52.486;13.374;2023-07-29T05:46:07;25.30;90.50
3356;DHT22;1691;52.486;13.374;2023-07-29T05:48:33;25.10;90.70
3356;DHT22;1691;52.486;13.374;2023-07-29T05:51:00;25.20;91.10
3356;DHT22;1691;52.486;13.374;2023-07-29T05:53:27;25.80;90.70
3356;DHT22;1691;52.486;13.374;2023-07-29T05:55:54;26.40;89.20
3356;DHT22;1691;52.486;13.374;2023-07-29T05:58:21;26.60;87.10
3356;DHT22;1691;52.486;13.374;2023-07-29T06:00:49;26.70;86.50
3356;DHT22;1691;52.486;13.374;2023-07-29T06:03:16;27.10;86.00
3356;DHT22;1691;52.486;13.374;2023-07-29T06:05:43;27.80;83.90
3356;DHT22;1691;52.486;13.374;2023-07-29T06:08:10;28.50;81.70
3356;DHT22;1691;52.486;13.374;2023-07-29T06:10:38;29.20;79.70
3356;DHT22;1691;52.486;13.374;2023-07-29T06:13:05;29.50;77.40
3356;DHT22;1691;52.486;13.374;2023-07-29T06:15:32;29.60;76.10
3356;DHT22;1691;52.486;13.374;2023-07-29T06:17:59;29.40;75.40
3356;DHT22;1691;52.486;13.374;2023-07-29T06:20:26;29.40;75.60
3356;DHT22;1691;52.486;13.374;2023-07-29T06:22:53;29.60;75.20
3356;DHT22;1691;52.486;13.374;2023-07-29T06:25:20;30.10;74.10
3356;DHT22;1691;52.486;13.374;2023-07-29T06:27:47;30.70;72.00
3356;DHT22;1691;52.486;13.374;2023-07-29T06:30:13;31.20;70.30
3356;DHT22;1691;52.486;13.374;2023-07-29T06:32:40;31.60;68.70
3356;DHT22;1691;52.486;13.374;2023-07-29T06:35:07;32.00;67.50
3356;DHT22;1691;52.486;13.374;2023-07-29T06:37:34;32.50;65.70
3356;DHT22;1691;52.486;13.374;2023-07-29T06:40:01;32.90;64.40
3356;DHT22;1691;52.486;13.374;2023-07-29T06:42:28;33.20;62.90
3356;DHT22;1691;52.486;13.374;2023-07-29T06:44:55;33.50;61.60
3356;DHT22;1691;52.486;13.374;2023-07-29T06:47:21;33.70;60.80
3356;DHT22;1691;52.486;13.374;2023-07-29T06:49:48;33.90;59.90
3356;DHT22;1691;52.486;13.374;2023-07-29T06:52:15;34.10;59.20
3356;DHT22;1691;52.486;13.374;2023-07-29T06:54:42;34.40;58.50
3356;DHT22;1691;52.486;13.374;2023-07-29T06:57:09;34.90;57.50
3356;DHT22;1691;52.486;13.374;2023-07-29T06:59:35;35.40;56.40
3356;DHT22;1691;52.486;13.374;2023-07-29T07:02:02;35.50;55.60
3356;DHT22;1691;52.486;13.374;2023-07-29T07:04:30;35.10;55.80
3356;DHT22;1691;52.486;13.374;2023-07-29T07:06:56;34.50;56.40
3356;DHT22;1691;52.486;13.374;2023-07-29T07:09:23;33.80;57.50
3356;DHT22;1691;52.486;13.374;2023-07-29T07:11:50;32.90;58.90
3356;DHT22;1691;52.486;13.374;2023-07-29T07:14:17;32.30;60.10
3356;DHT22;1691;52.486;13.374;2023-07-29T07:16:44;31.90;61.40
3356;DHT22;1691;52.486;13.374;2023-07-29T07:19:11;31.70;62.00
3356;DHT22;1691;52.486;13.374;2023-07-29T07:21:38;31.90;62.10
3356;DHT22;1691;52.486;13.374;2023-07-29T07:24:04;32.10;61.60
3356;DHT22;1691;52.486;13.374;2023-07-29T07:26:31;31.90;61.40
3356;DHT22;1691;52.486;13.374;2023-07-29T07:28:58;31.60;62.10
3356;DHT22;1691;52.486;13.374;2023-07-29T07:31:25;31.50;62.70
3356;DHT22;1691;52.486;13.374;2023-07-29T07:33:52;31.60;62.70
3356;DHT22;1691;52.486;13.374;2023-07-29T07:36:19;31.90;62.10
3356;DHT22;1691;52.486;13.374;2023-07-29T07:38:46;31.90;61.80
3356;DHT22;1691;52.486;13.374;2023-07-29T07:41:13;31.90;61.60
3356;DHT22;1691;52.486;13.374;2023-07-29T07:43:39;31.70;61.80
3356;DHT22;1691;52.486;13.374;2023-07-29T07:46:06;31.30;62.50
3356;DHT22;1691;52.486;13.374;2023-07-29T07:48:33;30.90;63.30
3356;DHT22;1691;52.486;13.374;2023-07-29T07:51:00;30.60;64.40
3356;DHT22;1691;52.486;13.374;2023-07-29T07:53:26;30.70;65.10
3356;DHT22;1691;52.486;13.374;2023-07-29T07:55:53;31.40;64.20
3356;DHT22;1691;52.486;13.374;2023-07-29T07:58:20;32.20;62.10
3356;DHT22;1691;52.486;13.374;2023-07-29T08:00:47;33.10;60.10
3356;DHT22;1691;52.486;13.374;2023-07-29T08:03:14;33.90;57.90
3356;DHT22;1691;52.486;13.374;2023-07-29T08:05:40;34.30;56.70
3356;DHT22;1691;52.486;13.374;2023-07-29T08:08:07;34.80;55.30
3356;DHT22;1691;52.486;13.374;2023-07-29T08:10:34;35.20;54.10
3356;DHT22;1691;52.486;13.374;2023-07-29T08:13:01;34.80;54.10
3356;DHT22;1691;52.486;13.374;2023-07-29T08:15:28;34.70;54.50
3356;DHT22;1691;52.486;13.374;2023-07-29T08:17:54;34.80;54.20
3356;DHT22;1691;52.486;13.374;2023-07-29T08:20:21;34.60;54.10
3356;DHT22;1691;52.486;13.374;2023-07-29T08:22:48;34.50;54.40
3356;DHT22;1691;52.486;13.374;2023-07-29T08:25:15;34.40;54.40
3356;DHT22;1691;52.486;13.374;2023-07-29T08:27:42;34.10;54.70
3356;DHT22;1691;52.486;13.374;2023-07-29T08:30:09;33.70;55.30
3356;DHT22;1691;52.486;13.374;2023-07-29T08:32:36;33.10;56.20
3356;DHT22;1691;52.486;13.374;2023-07-29T08:35:03;32.70;57.20
3356;DHT22;1691;52.486;13.374;2023-07-29T08:37:30;32.30;57.90
3356;DHT22;1691;52.486;13.374;2023-07-29T08:39:58;31.80;58.70
3356;DHT22;1691;52.486;13.374;2023-07-29T08:42:29;31.50;59.80
3356;DHT22;1691;52.486;13.374;2023-07-29T08:44:56;31.70;59.80
3356;DHT22;1691;52.486;13.374;2023-07-29T08:47:23;31.80;59.90
3356;DHT22;1691;52.486;13.374;2023-07-29T08:49:51;31.50;60.10
3356;DHT22;1691;52.486;13.374;2023-07-29T08:52:20;31.10;61.20
3356;DHT22;1691;52.486;13.374;2023-07-29T08:54:47;30.80;62.30
3356;DHT22;1691;52.486;13.374;2023-07-29T08:57:14;30.60;63.40
3356;DHT22;1691;52.486;13.374;2023-07-29T08:59:41;30.50;64.00
3356;DHT22;1691;52.486;13.374;2023-07-29T09:02:09;30.60;64.00
3356;DHT22;1691;52.486;13.374;2023-07-29T09:04:36;30.90;63.40
3356;DHT22;1691;52.486;13.374;2023-07-29T09:07:03;31.10;63.10
3356;DHT22;1691;52.486;13.374;2023-07-29T09:09:30;31.40;62.30
3356;DHT22;1691;52.486;13.374;2023-07-29T09:11:57;31.40;61.80
3356;DHT22;1691;52.486;13.374;2023-07-29T09:14:24;31.10;62.00
3356;DHT22;1691;52.486;13.374;2023-07-29T09:16:51;30.90;62.70
3356;DHT22;1691;52.486;13.374;2023-07-29T09:19:18;30.80;63.10
3356;DHT22;1691;52.486;13.374;2023-07-29T09:21:46;30.60;63.60
3356;DHT22;1691;52.486;13.374;2023-07-29T09:24:16;30.40;64.00
3356;DHT22;1691;52.486;13.374;2023-07-29T09:26:51;30.20;64.60
3356;DHT22;1691;52.486;13.374;2023-07-29T09:29:23;30.20;64.90
3356;DHT22;1691;52.486;13.374;2023-07-29T09:31:50;30.30;64.90
3356;DHT22;1691;52.486;13.374;2023-07-29T09:34:17;30.40;64.90
3356;DHT22;1691;52.486;13.374;2023-07-29T09:36:44;30.40;64.70
3356;DHT22;1691;52.486;13.374;2023-07-29T09:39:12;30.40;64.70
3356;DHT22;1691;52.486;13.374;2023-07-29T09:41:39;30.50;64.70
3356;DHT22;1691;52.486;13.374;2023-07-29T09:44:07;30.60;64.70
3356;DHT22;1691;52.486;13.374;2023-07-29T09:46:37;30.70;64.20
3356;DHT22;1691;52.486;13.374;2023-07-29T09:49:06;30.60;64.00
3356;DHT22;1691;52.486;13.374;2023-07-29T09:51:40;30.60;64.20
3356;DHT22;1691;52.486;13.374;2023-07-29T09:54:07;30.50;64.00
3356;DHT22;1691;52.486;13.374;2023-07-29T09:56:39;30.40;64.60
3356;DHT22;1691;52.486;13.374;2023-07-29T09:59:09;30.40;64.40
3356;DHT22;1691;52.486;13.374;2023-07-29T10:01:36;30.40;64.60
3356;DHT22;1691;52.486;13.374;2023-07-29T10:04:04;30.50;64.20
3356;DHT22;1691;52.486;13.374;2023-07-29T10:06:34;30.50;64.20
3356;DHT22;1691;52.486;13.374;2023-07-29T10:09:02;30.60;64.00
3356;DHT22;1691;52.486;13.374;2023-07-29T10:11:31;30.60;63.80
3356;DHT22;1691;52.486;13.374;2023-07-29T10:14:00;30.60;63.60
3356;DHT22;1691;52.486;13.374;2023-07-29T10:16:36;30.30;63.30
3356;DHT22;1691;52.486;13.374;2023-07-29T10:19:04;29.90;63.80
3356;DHT22;1691;52.486;13.374;2023-07-29T10:21:36;29.60;64.90
3356;DHT22;1691;52.486;13.374;2023-07-29T10:24:06;29.40;65.30
3356;DHT22;1691;52.486;13.374;2023-07-29T10:26:37;29.10;66.20
3356;DHT22;1691;52.486;13.374;2023-07-29T10:29:10;28.80;67.00
3356;DHT22;1691;52.486;13.374;2023-07-29T10:31:40;28.70;67.50
3356;DHT22;1691;52.486;13.374;2023-07-29T10:34:10;28.80;67.70
3356;DHT22;1691;52.486;13.374;2023-07-29T10:36:37;28.80;67.70
3356;DHT22;1691;52.486;13.374;2023-07-29T10:39:07;28.70;67.90
3356;DHT22;1691;52.486;13.374;2023-07-29T10:41:56;28.60;68.30
3356;DHT22;1691;52.486;13.374;2023-07-29T10:47:20;28.20;69.80
3356;DHT22;1691;52.486;13.374;2023-07-29T10:49:51;28.20;70.50
3356;DHT22;1691;52.486;13.374;2023-07-29T10:55:03;28.20;70.10
3356;DHT22;1691;52.486;13.374;2023-07-29T10:57:48;28.10;70.50
3356;DHT22;1691;52.486;13.374;2023-07-29T11:00:15;28.00;70.50
3356;DHT22;1691;52.486;13.374;2023-07-29T11:02:42;28.00;70.50
3356;DHT22;1691;52.486;13.374;2023-07-29T11:05:17;27.90;70.50
3356;DHT22;1691;52.486;13.374;2023-07-29T11:07:47;27.80;70.30
3356;DHT22;1691;52.486;13.374;2023-07-29T11:10:15;27.60;70.70
3356;DHT22;1691;52.486;13.374;2023-07-29T11:12:49;27.40;71.30
3356;DHT22;1691;52.486;13.374;2023-07-29T11:15:27;27.20;72.20
3356;DHT22;1691;52.486;13.374;2023-07-29T11:17:59;26.80;74.40
3356;DHT22;1691;52.486;13.374;2023-07-29T11:20:32;25.80;78.20
3356;DHT22;1691;52.486;13.374;2023-07-29T11:23:01;24.60;82.40
3356;DHT22;1691;52.486;13.374;2023-07-29T11:25:29;23.50;87.90
3356;DHT22;1691;52.486;13.374;2023-07-29T11:27:58;22.80;91.20
3356;DHT22;1691;52.486;13.374;2023-07-29T11:30:25;22.50;93.00
3356;DHT22;1691;52.486;13.374;2023-07-29T11:32:58;22.30;94.40
3356;DHT22;1691;52.486;13.374;2023-07-29T11:35:25;22.20;95.60
3356;DHT22;1691;52.486;13.374;2023-07-29T11:37:54;22.20;96.50
3356;DHT22;1691;52.486;13.374;2023-07-29T11:40:22;22.30;97.10
3356;DHT22;1691;52.486;13.374;2023-07-29T11:42:51;22.30;97.40
3356;DHT22;1691;52.486;13.374;2023-07-29T11:45:19;22.20;97.80
3356;DHT22;1691;52.486;13.374;2023-07-29T11:47:46;22.20;97.90
3356;DHT22;1691;52.486;13.374;2023-07-29T11:50:14;22.10;98.20
3356;DHT22;1691;52.486;13.374;2023-07-29T11:52:43;22.10;98.40
3356;DHT22;1691;52.486;13.374;2023-07-29T11:55:12;22.10;98.70
3356;DHT22;1691;52.486;13.374;2023-07-29T11:57:39;22.10;98.60
3356;DHT22;1691;52.486;13.374;2023-07-29T12:00:09;22.20;98.70
3356;DHT22;1691;52.486;13.374;2023-07-29T12:02:42;22.30;98.70
3356;DHT22;1691;52.486;13.374;2023-07-29T12:05:13;22.20;98.60
3356;DHT22;1691;52.486;13.374;2023-07-29T12:07:40;22.10;98.60
3356;DHT22;1691;52.486;13.374;2023-07-29T12:10:09;22.10;98.70
3356;DHT22;1691;52.486;13.374;2023-07-29T12:12:47;22.10;98.70
3356;DHT22;1691;52.486;13.374;2023-07-29T12:15:22;22.30;98.70
3356;DHT22;1691;52.486;13.374;2023-07-29T12:17:52;22.50;98.70
3356;DHT22;1691;52.486;13.374;2023-07-29T12:20:20;22.70;98.70
3356;DHT22;1691;52.486;13.374;2023-07-29T12:22:54;22.90;98.70
3356;DHT22;1691;52.486;13.374;2023-07-29T12:25:21;23.00;98.70
3356;DHT22;1691;52.486;13.374;2023-07-29T12:27:48;23.10;98.70
3356;DHT22;1691;52.486;13.374;2023-07-29T12:30:15;23.30;98.70
3356;DHT22;1691;52.486;13.374;2023-07-29T12:32:46;23.40;98.50
3356;DHT22;1691;52.486;13.374;2023-07-29T12:35:14;23.50;98.30
3356;DHT22;1691;52.486;13.374;2023-07-29T12:37:41;23.50;98.20
3356;DHT22;1691;52.486;13.374;2023-07-29T12:40:21;23.50;98.30
3356;DHT22;1691;52.486;13.374;2023-07-29T12:42:49;23.60;98.20
3356;DHT22;1691;52.486;13.374;2023-07-29T12:45:17;23.70;98.10
3356;DHT22;1691;52.486;13.374;2023-07-29T12:47:45;23.80;97.90
3356;DHT22;1691;52.486;13.374;2023-07-29T12:50:12;24.00;97.70
3356;DHT22;1691;52.486;13.374;2023-07-29T12:52:38;24.30;97.40
3356;DHT22;1691;52.486;13.374;2023-07-29T12:55:06;24.60;97.00
3356;DHT22;1691;52.486;13.374;2023-07-29T12:57:35;24.90;96.30
3356;DHT22;1691;52.486;13.374;2023-07-29T13:00:03;25.20;95.40
3356;DHT22;1691;52.486;13.374;2023-07-29T13:02:31;25.40;94.70
3356;DHT22;1691;52.486;13.374;2023-07-29T13:04:58;25.60;94.20
3356;DHT22;1691;52.486;13.374;2023-07-29T13:07:25;25.60;93.90
3356;DHT22;1691;52.486;13.374;2023-07-29T13:09:52;25.70;93.40
3356;DHT22;1691;52.486;13.374;2023-07-29T13:12:19;25.80;93.00
3356;DHT22;1691;52.486;13.374;2023-07-29T13:14:46;25.80;92.80
3356;DHT22;1691;52.486;13.374;2023-07-29T13:17:13;25.80;92.80
3356;DHT22;1691;52.486;13.374;2023-07-29T13:19:40;25.70;92.50
3356;DHT22;1691;52.486;13.374;2023-07-29T13:22:07;25.70;92.30
3356;DHT22;1691;52.486;13.374;2023-07-29T13:24:34;25.60;92.30
3356;DHT22;1691;52.486;13.374;2023-07-29T13:27:01;25.50;92.30
3356;DHT22;1691;52.486;13.374;2023-07-29T13:29:27;25.50;92.30
3356;DHT22;1691;52.486;13.374;2023-07-29T13:31:54;25.50;92.10
3356;DHT22;1691;52.486;13.374;2023-07-29T13:34:21;25.60;91.80
3356;DHT22;1691;52.486;13.374;2023-07-29T13:36:48;25.70;91.70
3356;DHT22;1691;52.486;13.374;2023-07-29T13:39:15;25.90;91.20
3356;DHT22;1691;52.486;13.374;2023-07-29T13:41:42;26.10;90.80
3356;DHT22;1691;52.486;13.374;2023-07-29T13:44:09;26.30;90.20
3356;DHT22;1691;52.486;13.374;2023-07-29T13:46:36;26.50;89.30
3356;DHT22;1691;52.486;13.374;2023-07-29T13:49:03;26.70;88.20
3356;DHT22;1691;52.486;13.374;2023-07-29T13:51:30;26.80;86.70
3356;DHT22;1691;52.486;13.374;2023-07-29T13:53:57;26.90;85.80
3356;DHT22;1691;52.486;13.374;2023-07-29T13:56:24;27.00;84.90
3356;DHT22;1691;52.486;13.374;2023-07-29T13:58:51;27.10;83.90
3356;DHT22;1691;52.486;13.374;2023-07-29T14:01:18;27.10;83.40
3356;DHT22;1691;52.486;13.374;2023-07-29T14:03:44;27.10;82.80
3356;DHT22;1691;52.486;13.374;2023-07-29T14:06:11;27.10;82.40
3356;DHT22;1691;52.486;13.374;2023-07-29T14:08:38;27.10;82.30
3356;DHT22;1691;52.486;13.374;2023-07-29T14:11:07;27.20;82.30
3356;DHT22;1691;52.486;13.374;2023-07-29T14:13:34;27.30;81.50
3356;DHT22;1691;52.486;13.374;2023-07-29T14:16:02;27.30;81.10
3356;DHT22;1691;52.486;13.374;2023-07-29T14:18:30;27.40;81.00
3356;DHT22;1691;52.486;13.374;2023-07-29T14:20:57;27.30;80.80
3356;DHT22;1691;52.486;13.374;2023-07-29T14:23:24;27.30;81.00
3356;DHT22;1691;52.486;13.374;2023-07-29T14:25:50;27.20;81.00
3356;DHT22;1691;52.486;13.374;2023-07-29T14:28:17;27.10;81.10
3356;DHT22;1691;52.486;13.374;2023-07-29T14:30:44;26.90;81.50
3356;DHT22;1691;52.486;13.374;2023-07-29T14:33:11;26.80;81.50
3356;DHT22;1691;52.486;13.374;2023-07-29T14:35:38;26.70;81.90
3356;DHT22;1691;52.486;13.374;2023-07-29T14:38:05;26.70;81.90
3356;DHT22;1691;52.486;13.374;2023-07-29T14:40:32;26.70;82.10
3356;DHT22;1691;52.486;13.374;2023-07-29T14:42:59;26.80;81.50
3356;DHT22;1691;52.486;13.374;2023-07-29T14:45:26;26.90;81.30
3356;DHT22;1691;52.486;13.374;2023-07-29T14:47:53;26.80;81.30
3356;DHT22;1691;52.486;13.374;2023-07-29T14:50:20;26.80;81.70
3356;DHT22;1691;52.486;13.374;2023-07-29T14:52:47;26.70;81.90
3356;DHT22;1691;52.486;13.374;2023-07-29T14:55:14;26.70;81.90
3356;DHT22;1691;52.486;13.374;2023-07-29T14:57:41;26.60;81.90
3356;DHT22;1691;52.486;13.374;2023-07-29T15:00:08;26.60;82.10
3356;DHT22;1691;52.486;13.374;2023-07-29T15:02:35;26.50;82.30
3356;DHT22;1691;52.486;13.374;2023-07-29T15:05:02;26.40;82.40
3356;DHT22;1691;52.486;13.374;2023-07-29T15:07:29;26.30;82.80
3356;DHT22;1691;52.486;13.374;2023-07-29T15:09:56;26.10;83.40
3356;DHT22;1691;52.486;13.374;2023-07-29T15:12:23;26.00;83.80
3356;DHT22;1691;52.486;13.374;2023-07-29T15:14:51;25.90;84.10
3356;DHT22;1691;52.486;13.374;2023-07-29T15:17:17;25.80;84.30
3356;DHT22;1691;52.486;13.374;2023-07-29T15:19:44;25.70;84.30
3356;DHT22;1691;52.486;13.374;2023-07-29T15:22:11;25.60;84.50
3356;DHT22;1691;52.486;13.374;2023-07-29T15:24:38;25.50;85.20
3356;DHT22;1691;52.486;13.374;2023-07-29T15:27:06;25.40;85.60
3356;DHT22;1691;52.486;13.374;2023-07-29T15:29:33;25.40;85.80
3356;DHT22;1691;52.486;13.374;2023-07-29T15:32:00;25.40;86.20
3356;DHT22;1691;52.486;13.374;2023-07-29T15:34:27;25.30;86.40
3356;DHT22;1691;52.486;13.374;2023-07-29T15:36:58;25.30;86.40
3356;DHT22;1691;52.486;13.374;2023-07-29T15:39:25;24.90;85.20
3356;DHT22;1691;52.486;13.374;2023-07-29T15:41:52;24.20;84.30
3356;DHT22;1691;52.486;13.374;2023-07-29T15:44:20;23.40;85.10
3356;DHT22;1691;52.486;13.374;2023-07-29T15:46:46;22.70;87.30
3356;DHT22;1691;52.486;13.374;2023-07-29T15:49:13;22.20;89.00
3356;DHT22;1691;52.486;13.374;2023-07-29T15:51:40;21.70;90.30
3356;DHT22;1691;52.486;13.374;2023-07-29T15:54:07;21.50;90.90
3356;DHT22;1691;52.486;13.374;2023-07-29T15:56:34;21.30;91.30
3356;DHT22;1691;52.486;13.374;2023-07-29T15:59:05;21.10;91.90
3356;DHT22;1691;52.486;13.374;2023-07-29T16:01:32;21.00;92.40